Hovedside
METAR-TAF:

METAR-TAF

Lufthavner :

Sandane lufthamn. Anda

Sandane, Norge

breddegrad: 61-50N, lengdegrad: 006-07E, høyde over havet: 6 m

Gjeldene værobservasjon

Denne rapporten ble laget for 36 minutter siden, klokken 10:20 UTC
Vind 2 kt fra skiftende retning
Temperatur 8°C
Luftfuktighet 93%
Trykk 984 hPa
Sikt 10 km eller mer
Få skyer i en høyde av 1300 ft
Spredte skyer i en høyde av 3400 ft
Brutte skyer i en høyde av 4700 ft
lette regnbyger

METAR: ENSD 211020Z VRB02KT 9999 -SHRA FEW013 SCT034 BKN047 08/07 Q0984 RMK WIND 1138FT 07006KT

Tid: 12:56 (10:56 UTC)


TAF: fraværende

Værobservasjoner og værvarsel for over 4000 flyplasser (METAR- og TAF-rapporter).

Tilgjengelige stasjoner er representert av de røde og gule prikkene på kartet.

Hold musepekeren over prikken for å se navnet på stasjonen.

Klikk så for å se værobservasjoner og -varsler.

For å forandre kartet kan du klikke på den grønne knappen med svart kryss for å zoome inn, på den grønne knappen med strek for å zoome ut, eller på de grønne pilene for å se tilstøtende kart.


METAR-TAF: